sensor_id;sensor_type;location;lat;lon;timestamp;noise_LAeq;noise_LA_min;noise_LA_max;noise_LA01;noise_LA95
74214;Laerm;62576;55.694;37.494;2024-03-22T00:02:22;55.50;28.75;68.23;;
74214;Laerm;62576;55.694;37.494;2024-03-22T00:04:51;56.99;26.26;67.52;;
74214;Laerm;62576;55.694;37.494;2024-03-22T00:07:24;58.38;33.06;67.96;;
74214;Laerm;62576;55.694;37.494;2024-03-22T00:09:53;57.97;52.68;68.06;;
74214;Laerm;62576;55.694;37.494;2024-03-22T00:12:24;58.58;52.92;67.66;;
74214;Laerm;62576;55.694;37.494;2024-03-22T00:14:53;61.38;29.28;70.55;;
74214;Laerm;62576;55.694;37.494;2024-03-22T00:17:25;60.29;51.15;70.76;;
74214;Laerm;62576;55.694;37.494;2024-03-22T00:19:54;59.98;47.92;68.63;;
74214;Laerm;62576;55.694;37.494;2024-03-22T00:22:24;56.63;51.39;67.34;;
74214;Laerm;62576;55.694;37.494;2024-03-22T00:24:53;58.75;32.00;65.91;;
74214;Laerm;62576;55.694;37.494;2024-03-22T00:27:23;57.66;51.66;65.28;;
74214;Laerm;62576;55.694;37.494;2024-03-22T00:29:52;58.53;50.69;69.24;;
74214;Laerm;62576;55.694;37.494;2024-03-22T00:32:24;59.60;45.01;70.89;;
74214;Laerm;62576;55.694;37.494;2024-03-22T00:34:53;55.82;37.15;62.44;;
74214;Laerm;62576;55.694;37.494;2024-03-22T00:37:23;56.89;34.37;67.60;;
74214;Laerm;62576;55.694;37.494;2024-03-22T00:39:52;54.70;50.75;63.37;;
74214;Laerm;62576;55.694;37.494;2024-03-22T00:42:22;56.67;50.62;66.57;;
74214;Laerm;62576;55.694;37.494;2024-03-22T00:44:51;60.64;51.15;72.61;;
74214;Laerm;62576;55.694;37.494;2024-03-22T00:47:21;54.80;28.04;63.05;;
74214;Laerm;62576;55.694;37.494;2024-03-22T00:49:52;59.74;51.51;74.58;;
74214;Laerm;62576;55.694;37.494;2024-03-22T00:52:22;58.47;28.39;67.74;;
74214;Laerm;62576;55.694;37.494;2024-03-22T00:54:52;59.92;45.49;70.67;;
74214;Laerm;62576;55.694;37.494;2024-03-22T00:57:22;57.80;29.73;65.63;;
74214;Laerm;62576;55.694;37.494;2024-03-22T00:59:51;60.29;52.17;70.69;;
74214;Laerm;62576;55.694;37.494;2024-03-22T01:02:21;56.73;51.06;65.52;;
74214;Laerm;62576;55.694;37.494;2024-03-22T01:04:52;57.13;30.00;65.24;;
74214;Laerm;62576;55.694;37.494;2024-03-22T01:07:22;57.18;24.32;69.15;;
74214;Laerm;62576;55.694;37.494;2024-03-22T01:09:51;55.82;26.72;65.69;;
74214;Laerm;62576;55.694;37.494;2024-03-22T01:12:21;58.55;50.12;70.61;;
74214;Laerm;62576;55.694;37.494;2024-03-22T01:14:50;55.45;28.78;67.88;;
74214;Laerm;62576;55.694;37.494;2024-03-22T01:17:20;62.53;37.27;77.57;;
74214;Laerm;62576;55.694;37.494;2024-03-22T01:19:49;56.94;35.33;65.94;;
74214;Laerm;62576;55.694;37.494;2024-03-22T01:22:21;56.30;50.88;65.17;;
74214;Laerm;62576;55.694;37.494;2024-03-22T01:24:50;56.73;51.65;62.83;;
74214;Laerm;62576;55.694;37.494;2024-03-22T01:27:20;56.44;45.31;64.80;;
74214;Laerm;62576;55.694;37.494;2024-03-22T01:29:49;58.94;51.35;68.44;;
74214;Laerm;62576;55.694;37.494;2024-03-22T01:32:19;57.32;30.58;65.25;;
74214;Laerm;62576;55.694;37.494;2024-03-22T01:34:48;59.55;47.99;69.24;;
74214;Laerm;62576;55.694;37.494;2024-03-22T01:37:18;56.28;50.69;63.83;;
74214;Laerm;62576;55.694;37.494;2024-03-22T01:39:49;57.84;29.57;68.02;;
74214;Laerm;62576;55.694;37.494;2024-03-22T01:42:19;56.53;28.52;64.76;;
74214;Laerm;62576;55.694;37.494;2024-03-22T01:44:49;59.13;51.68;68.90;;
74214;Laerm;62576;55.694;37.494;2024-03-22T01:47:19;60.35;52.07;69.78;;
74214;Laerm;62576;55.694;37.494;2024-03-22T01:49:48;58.98;50.72;66.14;;
74214;Laerm;62576;55.694;37.494;2024-03-22T01:52:19;56.03;51.23;63.85;;
74214;Laerm;62576;55.694;37.494;2024-03-22T01:54:50;59.69;37.21;68.27;;
74214;Laerm;62576;55.694;37.494;2024-03-22T01:57:20;58.65;52.19;67.85;;
74214;Laerm;62576;55.694;37.494;2024-03-22T01:59:49;56.51;50.56;63.61;;
74214;Laerm;62576;55.694;37.494;2024-03-22T02:02:21;58.41;51.64;67.15;;
74214;Laerm;62576;55.694;37.494;2024-03-22T02:04:50;58.45;51.57;66.67;;
74214;Laerm;62576;55.694;37.494;2024-03-22T02:07:21;58.35;30.69;67.64;;
74214;Laerm;62576;55.694;37.494;2024-03-22T02:09:51;59.82;50.78;67.40;;
74214;Laerm;62576;55.694;37.494;2024-03-22T02:12:21;60.68;52.43;70.95;;
74214;Laerm;62576;55.694;37.494;2024-03-22T02:14:51;61.24;53.16;68.26;;
74214;Laerm;62576;55.694;37.494;2024-03-22T02:17:21;59.69;52.30;69.98;;
74214;Laerm;62576;55.694;37.494;2024-03-22T02:19:50;59.30;51.77;65.31;;
74214;Laerm;62576;55.694;37.494;2024-03-22T02:22:19;60.53;53.50;67.57;;
74214;Laerm;62576;55.694;37.494;2024-03-22T02:24:50;60.68;52.51;70.16;;
74214;Laerm;62576;55.694;37.494;2024-03-22T02:27:20;58.77;53.02;64.77;;
74214;Laerm;62576;55.694;37.494;2024-03-22T02:29:49;58.83;52.90;66.60;;
74214;Laerm;62576;55.694;37.494;2024-03-22T02:32:19;58.34;51.99;67.87;;
74214;Laerm;62576;55.694;37.494;2024-03-22T02:34:48;59.00;52.05;69.00;;
74214;Laerm;62576;55.694;37.494;2024-03-22T02:37:19;59.93;52.58;69.55;;
74214;Laerm;62576;55.694;37.494;2024-03-22T02:39:49;59.27;52.74;65.99;;
74214;Laerm;62576;55.694;37.494;2024-03-22T02:42:19;60.68;52.98;68.97;;
74214;Laerm;62576;55.694;37.494;2024-03-22T02:44:48;59.16;53.42;65.77;;
74214;Laerm;62576;55.694;37.494;2024-03-22T02:47:18;60.70;53.58;68.76;;
74214;Laerm;62576;55.694;37.494;2024-03-22T02:49:48;60.81;52.99;68.57;;
74214;Laerm;62576;55.694;37.494;2024-03-22T02:52:18;61.52;53.04;72.13;;
74214;Laerm;62576;55.694;37.494;2024-03-22T02:54:47;60.14;54.39;65.87;;
74214;Laerm;62576;55.694;37.494;2024-03-22T02:57:18;63.87;54.79;72.53;;
74214;Laerm;62576;55.694;37.494;2024-03-22T02:59:49;62.39;53.90;69.85;;
74214;Laerm;62576;55.694;37.494;2024-03-22T03:02:18;61.63;53.92;69.73;;
74214;Laerm;62576;55.694;37.494;2024-03-22T03:04:47;61.47;53.30;69.99;;
74214;Laerm;62576;55.694;37.494;2024-03-22T03:07:15;62.27;53.04;69.13;;
74214;Laerm;62576;55.694;37.494;2024-03-22T03:09:44;62.03;54.07;68.70;;
74214;Laerm;62576;55.694;37.494;2024-03-22T03:12:14;62.90;54.53;69.38;;
74214;Laerm;62576;55.694;37.494;2024-03-22T03:14:44;62.87;54.92;71.10;;
74214;Laerm;62576;55.694;37.494;2024-03-22T03:17:14;63.24;54.90;70.31;;
74214;Laerm;62576;55.694;37.494;2024-03-22T03:19:44;62.63;54.72;70.22;;
74214;Laerm;62576;55.694;37.494;2024-03-22T03:22:14;61.96;56.20;69.30;;
74214;Laerm;62576;55.694;37.494;2024-03-22T03:24:43;63.78;54.35;71.54;;
74214;Laerm;62576;55.694;37.494;2024-03-22T03:27:14;64.83;50.96;72.92;;
74214;Laerm;62576;55.694;37.494;2024-03-22T03:29:44;63.49;54.00;71.59;;
74214;Laerm;62576;55.694;37.494;2024-03-22T03:32:14;64.43;55.27;73.36;;
74214;Laerm;62576;55.694;37.494;2024-03-22T03:34:43;64.55;55.73;71.93;;
74214;Laerm;62576;55.694;37.494;2024-03-22T03:37:14;64.95;48.71;72.07;;
74214;Laerm;62576;55.694;37.494;2024-03-22T03:39:43;65.59;55.74;71.11;;
74214;Laerm;62576;55.694;37.494;2024-03-22T03:42:14;64.55;53.25;71.54;;
74214;Laerm;62576;55.694;37.494;2024-03-22T03:44:47;66.22;56.21;73.39;;
74214;Laerm;62576;55.694;37.494;2024-03-22T03:47:17;64.21;56.35;72.42;;
74214;Laerm;62576;55.694;37.494;2024-03-22T03:49:46;66.23;57.86;73.27;;
74214;Laerm;62576;55.694;37.494;2024-03-22T03:52:17;66.67;58.26;72.24;;
74214;Laerm;62576;55.694;37.494;2024-03-22T03:54:47;66.49;56.41;72.98;;
74214;Laerm;62576;55.694;37.494;2024-03-22T03:57:17;65.93;55.59;72.23;;
74214;Laerm;62576;55.694;37.494;2024-03-22T03:59:47;66.32;58.27;73.01;;
74214;Laerm;62576;55.694;37.494;2024-03-22T04:02:18;66.94;57.90;74.04;;
74214;Laerm;62576;55.694;37.494;2024-03-22T04:04:47;67.79;56.68;73.28;;
74214;Laerm;62576;55.694;37.494;2024-03-22T04:07:17;67.46;58.36;73.60;;
74214;Laerm;62576;55.694;37.494;2024-03-22T04:09:46;67.39;58.50;72.47;;
74214;Laerm;62576;55.694;37.494;2024-03-22T04:12:16;68.90;60.14;73.20;;
74214;Laerm;62576;55.694;37.494;2024-03-22T04:14:47;68.52;59.15;73.20;;
74214;Laerm;62576;55.694;37.494;2024-03-22T04:17:17;68.03;61.10;73.14;;
74214;Laerm;62576;55.694;37.494;2024-03-22T04:19:46;68.86;59.31;74.51;;
74214;Laerm;62576;55.694;37.494;2024-03-22T04:22:19;67.94;58.98;73.37;;
74214;Laerm;62576;55.694;37.494;2024-03-22T04:24:48;69.50;63.51;77.23;;
74214;Laerm;62576;55.694;37.494;2024-03-22T04:27:18;68.92;63.02;73.27;;
74214;Laerm;62576;55.694;37.494;2024-03-22T04:29:49;67.94;59.13;73.93;;
74214;Laerm;62576;55.694;37.494;2024-03-22T04:32:20;69.48;61.63;73.46;;
74214;Laerm;62576;55.694;37.494;2024-03-22T04:34:50;68.30;59.65;73.52;;
74214;Laerm;62576;55.694;37.494;2024-03-22T04:37:20;69.45;62.31;74.40;;
74214;Laerm;62576;55.694;37.494;2024-03-22T04:39:51;69.84;62.00;79.43;;
74214;Laerm;62576;55.694;37.494;2024-03-22T04:42:21;68.74;61.85;77.04;;
74214;Laerm;62576;55.694;37.494;2024-03-22T04:44:53;69.38;62.85;73.09;;
74214;Laerm;62576;55.694;37.494;2024-03-22T04:47:22;68.53;60.68;73.49;;
74214;Laerm;62576;55.694;37.494;2024-03-22T04:49:52;68.45;61.29;73.36;;
74214;Laerm;62576;55.694;37.494;2024-03-22T04:52:22;68.84;61.98;72.75;;
74214;Laerm;62576;55.694;37.494;2024-03-22T04:54:52;69.16;59.15;74.02;;
74214;Laerm;62576;55.694;37.494;2024-03-22T04:57:21;67.85;61.57;72.22;;
74214;Laerm;62576;55.694;37.494;2024-03-22T04:59:53;69.14;61.98;72.90;;
74214;Laerm;62576;55.694;37.494;2024-03-22T05:02:22;69.60;62.08;73.62;;
74214;Laerm;62576;55.694;37.494;2024-03-22T05:04:50;69.70;62.30;73.74;;
74214;Laerm;62576;55.694;37.494;2024-03-22T05:07:19;69.05;62.79;73.87;;
74214;Laerm;62576;55.694;37.494;2024-03-22T05:09:50;68.85;61.55;73.41;;
74214;Laerm;62576;55.694;37.494;2024-03-22T05:12:19;68.82;61.92;75.05;;
74214;Laerm;62576;55.694;37.494;2024-03-22T05:15:02;69.38;62.54;73.23;;
74214;Laerm;62576;55.694;37.494;2024-03-22T05:17:32;69.04;57.18;72.78;;
74214;Laerm;62576;55.694;37.494;2024-03-22T05:20:03;69.43;62.09;73.02;;
74214;Laerm;62576;55.694;37.494;2024-03-22T05:22:32;68.98;61.82;72.94;;
74214;Laerm;62576;55.694;37.494;2024-03-22T05:25:02;69.03;62.22;77.11;;
74214;Laerm;62576;55.694;37.494;2024-03-22T05:27:32;69.67;60.94;74.01;;
74214;Laerm;62576;55.694;37.494;2024-03-22T05:30:05;69.00;62.45;73.92;;
74214;Laerm;62576;55.694;37.494;2024-03-22T05:32:34;69.69;62.76;73.30;;
74214;Laerm;62576;55.694;37.494;2024-03-22T05:35:05;69.60;62.60;74.55;;
74214;Laerm;62576;55.694;37.494;2024-03-22T05:37:35;69.18;61.40;75.15;;
74214;Laerm;62576;55.694;37.494;2024-03-22T05:40:07;69.56;60.05;74.02;;
74214;Laerm;62576;55.694;37.494;2024-03-22T05:42:37;69.50;62.06;73.50;;
74214;Laerm;62576;55.694;37.494;2024-03-22T05:45:10;68.74;60.08;75.57;;
74214;Laerm;62576;55.694;37.494;2024-03-22T05:47:40;69.45;62.71;76.45;;
74214;Laerm;62576;55.694;37.494;2024-03-22T05:50:10;70.11;61.57;74.72;;
74214;Laerm;62576;55.694;37.494;2024-03-22T05:52:39;69.35;62.22;73.22;;
74214;Laerm;62576;55.694;37.494;2024-03-22T05:55:10;69.28;60.87;73.62;;
74214;Laerm;62576;55.694;37.494;2024-03-22T05:57:39;69.29;56.54;73.39;;
74214;Laerm;62576;55.694;37.494;2024-03-22T06:00:22;70.40;61.22;84.44;;
74214;Laerm;62576;55.694;37.494;2024-03-22T06:02:51;69.71;38.97;74.14;;
74214;Laerm;62576;55.694;37.494;2024-03-22T06:05:22;68.84;61.23;72.67;;
74214;Laerm;62576;55.694;37.494;2024-03-22T06:07:51;68.94;59.73;72.98;;
74214;Laerm;62576;55.694;37.494;2024-03-22T06:10:21;68.75;60.53;73.13;;
74214;Laerm;62576;55.694;37.494;2024-03-22T06:12:51;68.81;61.94;73.97;;
74214;Laerm;62576;55.694;37.494;2024-03-22T06:15:23;69.65;61.45;73.87;;
74214;Laerm;62576;55.694;37.494;2024-03-22T06:17:54;70.07;60.32;79.36;;
74214;Laerm;62576;55.694;37.494;2024-03-22T06:20:25;69.18;60.48;79.61;;
74214;Laerm;62576;55.694;37.494;2024-03-22T06:22:54;69.52;60.91;73.36;;
74214;Laerm;62576;55.694;37.494;2024-03-22T06:25:24;69.18;60.62;73.86;;
74214;Laerm;62576;55.694;37.494;2024-03-22T06:27:53;69.00;60.85;74.45;;
74214;Laerm;62576;55.694;37.494;2024-03-22T06:30:26;69.67;60.59;74.39;;
74214;Laerm;62576;55.694;37.494;2024-03-22T06:32:56;69.03;59.40;73.60;;
74214;Laerm;62576;55.694;37.494;2024-03-22T06:35:26;68.62;60.13;72.62;;
74214;Laerm;62576;55.694;37.494;2024-03-22T06:37:52;69.28;59.95;74.81;;
74214;Laerm;62576;55.694;37.494;2024-03-22T06:40:23;68.33;59.74;73.32;;
74214;Laerm;62576;55.694;37.494;2024-03-22T06:42:53;67.13;58.26;72.09;;
74214;Laerm;62576;55.694;37.494;2024-03-22T06:45:23;68.43;58.79;73.67;;
74214;Laerm;62576;55.694;37.494;2024-03-22T06:48:12;69.64;62.77;74.11;;
74214;Laerm;62576;55.694;37.494;2024-03-22T06:50:44;68.69;59.86;78.62;;
74214;Laerm;62576;55.694;37.494;2024-03-22T06:53:13;67.74;57.31;72.51;;
74214;Laerm;62576;55.694;37.494;2024-03-22T06:55:44;67.78;51.26;73.23;;
74214;Laerm;62576;55.694;37.494;2024-03-22T06:58:14;67.64;57.90;72.82;;
74214;Laerm;62576;55.694;37.494;2024-03-22T07:00:44;69.03;55.61;73.45;;
74214;Laerm;62576;55.694;37.494;2024-03-22T07:03:15;68.41;58.89;72.35;;
74214;Laerm;62576;55.694;37.494;2024-03-22T07:05:47;69.16;58.02;73.38;;
74214;Laerm;62576;55.694;37.494;2024-03-22T07:08:16;67.88;57.55;72.84;;
74214;Laerm;62576;55.694;37.494;2024-03-22T07:10:46;69.24;60.59;77.91;;
74214;Laerm;62576;55.694;37.494;2024-03-22T07:13:15;68.08;55.09;73.61;;
74214;Laerm;62576;55.694;37.494;2024-03-22T07:15:46;67.38;56.29;72.26;;
74214;Laerm;62576;55.694;37.494;2024-03-22T07:18:18;68.41;57.64;72.78;;
74214;Laerm;62576;55.694;37.494;2024-03-22T07:20:49;67.46;55.85;75.31;;
74214;Laerm;62576;55.694;37.494;2024-03-22T07:23:18;67.16;57.00;72.84;;
74214;Laerm;62576;55.694;37.494;2024-03-22T07:25:48;66.06;53.98;72.01;;
74214;Laerm;62576;55.694;37.494;2024-03-22T07:28:17;66.37;55.19;76.95;;
74214;Laerm;62576;55.694;37.494;2024-03-22T07:30:48;65.76;51.34;71.08;;
74214;Laerm;62576;55.694;37.494;2024-03-22T07:33:18;66.70;47.25;73.11;;
74214;Laerm;62576;55.694;37.494;2024-03-22T07:35:49;68.01;34.08;72.95;;
74214;Laerm;62576;55.694;37.494;2024-03-22T07:38:18;67.24;60.71;72.39;;
74214;Laerm;62576;55.694;37.494;2024-03-22T07:40:49;66.56;56.10;72.57;;
74214;Laerm;62576;55.694;37.494;2024-03-22T07:43:17;67.81;58.61;72.90;;
74214;Laerm;62576;55.694;37.494;2024-03-22T07:45:48;66.21;55.65;72.56;;
74214;Laerm;62576;55.694;37.494;2024-03-22T07:48:18;65.51;56.44;70.32;;
74214;Laerm;62576;55.694;37.494;2024-03-22T07:50:56;66.57;50.93;71.45;;
74214;Laerm;62576;55.694;37.494;2024-03-22T07:53:26;66.75;57.34;71.85;;
74214;Laerm;62576;55.694;37.494;2024-03-22T07:55:56;65.58;56.40;71.76;;
74214;Laerm;62576;55.694;37.494;2024-03-22T07:58:26;63.90;55.96;68.89;;
74214;Laerm;62576;55.694;37.494;2024-03-22T08:00:56;65.35;54.94;72.32;;
74214;Laerm;62576;55.694;37.494;2024-03-22T08:03:27;64.50;54.03;70.50;;
74214;Laerm;62576;55.694;37.494;2024-03-22T08:05:58;65.40;56.41;72.11;;
74214;Laerm;62576;55.694;37.494;2024-03-22T08:08:28;66.13;58.13;71.11;;
74214;Laerm;62576;55.694;37.494;2024-03-22T08:10:59;66.61;59.59;74.24;;
74214;Laerm;62576;55.694;37.494;2024-03-22T08:13:29;65.54;59.03;70.11;;
74214;Laerm;62576;55.694;37.494;2024-03-22T08:15:59;64.66;58.01;73.25;;
74214;Laerm;62576;55.694;37.494;2024-03-22T08:21:22;65.30;57.79;70.84;;
74214;Laerm;62576;55.694;37.494;2024-03-22T08:23:51;64.97;56.99;70.39;;
74214;Laerm;62576;55.694;37.494;2024-03-22T08:26:22;64.88;57.01;74.36;;
74214;Laerm;62576;55.694;37.494;2024-03-22T08:28:51;66.66;59.10;85.31;;
74214;Laerm;62576;55.694;37.494;2024-03-22T08:31:22;63.86;59.40;68.93;;
74214;Laerm;62576;55.694;37.494;2024-03-22T08:33:55;65.13;60.52;69.95;;
74214;Laerm;62576;55.694;37.494;2024-03-22T08:36:23;64.37;59.38;68.90;;
74214;Laerm;62576;55.694;37.494;2024-03-22T08:38:52;64.10;58.09;67.79;;
74214;Laerm;62576;55.694;37.494;2024-03-22T08:41:22;64.61;57.29;69.08;;
74214;Laerm;62576;55.694;37.494;2024-03-22T08:43:52;64.09;59.56;67.36;;
74214;Laerm;62576;55.694;37.494;2024-03-22T08:46:22;65.14;61.29;68.65;;
74214;Laerm;62576;55.694;37.494;2024-03-22T08:48:55;64.44;59.81;69.06;;
74214;Laerm;62576;55.694;37.494;2024-03-22T08:51:25;65.52;61.33;70.19;;
74214;Laerm;62576;55.694;37.494;2024-03-22T08:53:55;66.76;58.35;96.23;;
74214;Laerm;62576;55.694;37.494;2024-03-22T08:56:27;66.68;21.30;96.23;;
74214;Laerm;62576;55.694;37.494;2024-03-22T08:58:56;67.28;-3.08;96.34;;
74214;Laerm;62576;55.694;37.494;2024-03-22T09:01:27;68.16;-4.13;96.22;;
74214;Laerm;62576;55.694;37.494;2024-03-22T09:03:58;60.67;-6.81;68.62;;
74214;Laerm;62576;55.694;37.494;2024-03-22T09:06:28;59.61;-7.92;76.32;;
74214;Laerm;62576;55.694;37.494;2024-03-22T09:08:58;65.14;-8.24;96.23;;
74214;Laerm;62576;55.694;37.494;2024-03-22T09:11:30;65.33;2.46;71.08;;
74214;Laerm;62576;55.694;37.494;2024-03-22T09:14:00;64.71;-4.00;68.61;;
74214;Laerm;62576;55.694;37.494;2024-03-22T09:16:30;64.76;-11.53;96.20;;
74214;Laerm;62576;55.694;37.494;2024-03-22T09:19:03;66.40;-16.90;96.23;;
74214;Laerm;62576;55.694;37.494;2024-03-22T09:21:33;69.89;-47.95;96.23;;
74214;Laerm;62576;55.694;37.494;2024-03-22T09:24:02;66.37;-323.91;96.23;;
74214;Laerm;62576;55.694;37.494;2024-03-22T09:26:33;64.87;-331.32;96.22;;
74214;Laerm;62576;55.694;37.494;2024-03-22T09:29:02;64.69;-244.03;96.23;;
74214;Laerm;62576;55.694;37.494;2024-03-22T09:31:34;70.66;-329.56;96.23;;
74214;Laerm;62576;55.694;37.494;2024-03-22T09:34:06;59.81;-328.31;96.22;;
74214;Laerm;62576;55.694;37.494;2024-03-22T09:36:33;5.00;5.00;5.00;;
74214;Laerm;62576;55.694;37.494;2024-03-22T09:39:05;5.00;5.00;5.00;;
74214;Laerm;62576;55.694;37.494;2024-03-22T09:41:42;5.00;5.00;5.00;;
74214;Laerm;62576;55.694;37.494;2024-03-22T09:44:13;65.74;-329.56;96.12;;
74214;Laerm;62576;55.694;37.494;2024-03-22T09:46:44;65.62;-326.54;96.24;;
74214;Laerm;62576;55.694;37.494;2024-03-22T09:49:18;64.83;-324.33;95.63;;
74214;Laerm;62576;55.694;37.494;2024-03-22T09:51:52;68.30;-327.34;96.20;;
74214;Laerm;62576;55.694;37.494;2024-03-22T09:54:24;5.00;5.00;5.00;;
74214;Laerm;62576;55.694;37.494;2024-03-22T09:56:56;5.00;5.00;5.00;;
74214;Laerm;62576;55.694;37.494;2024-03-22T09:59:27;61.74;5.00;95.42;;
74214;Laerm;62576;55.694;37.494;2024-03-22T10:01:58;61.35;-324.33;96.12;;
74214;Laerm;62576;55.694;37.494;2024-03-22T10:04:30;62.00;-326.54;96.16;;
74214;Laerm;62576;55.694;37.494;2024-03-22T10:07:01;66.27;-328.31;96.14;;
74214;Laerm;62576;55.694;37.494;2024-03-22T10:09:31;5.00;5.00;5.00;;
74214;Laerm;62576;55.694;37.494;2024-03-22T10:12:02;61.50;-323.91;96.12;;
74214;Laerm;62576;55.694;37.494;2024-03-22T10:14:32;5.00;5.00;5.00;;
74214;Laerm;62576;55.694;37.494;2024-03-22T10:17:04;5.00;5.00;5.00;;
74214;Laerm;62576;55.694;37.494;2024-03-22T10:19:35;59.69;5.00;95.86;;
74214;Laerm;62576;55.694;37.494;2024-03-22T10:22:05;56.53;-326.54;92.59;;
74214;Laerm;62576;55.694;37.494;2024-03-22T10:24:35;63.65;-187.23;96.05;;
74214;Laerm;62576;55.694;37.494;2024-03-22T10:27:06;66.26;-326.54;96.51;;
74214;Laerm;62576;55.694;37.494;2024-03-22T10:29:48;61.85;-331.32;95.98;;
74214;Laerm;62576;55.694;37.494;2024-03-22T10:32:29;5.00;5.00;5.00;;
74214;Laerm;62576;55.694;37.494;2024-03-22T10:35:20;61.43;-323.53;95.93;;
74214;Laerm;62576;55.694;37.494;2024-03-22T10:37:49;5.00;5.00;5.00;;
74214;Laerm;62576;55.694;37.494;2024-03-22T10:40:20;5.00;5.00;5.00;;
74214;Laerm;62576;55.694;37.494;2024-03-22T10:42:51;67.24;-326.54;96.10;;
74214;Laerm;62576;55.694;37.494;2024-03-22T10:45:21;5.00;5.00;5.00;;
74214;Laerm;62576;55.694;37.494;2024-03-22T10:47:56;5.00;5.00;5.00;;
74214;Laerm;62576;55.694;37.494;2024-03-22T10:50:27;5.00;5.00;5.00;;
74214;Laerm;62576;55.694;37.494;2024-03-22T10:52:59;5.00;5.00;5.00;;
74214;Laerm;62576;55.694;37.494;2024-03-22T10:55:33;5.00;5.00;5.00;;
74214;Laerm;62576;55.694;37.494;2024-03-22T10:58:05;5.00;5.00;5.00;;
74214;Laerm;62576;55.694;37.494;2024-03-22T11:00:36;5.00;5.00;5.00;;
74214;Laerm;62576;55.694;37.494;2024-03-22T11:03:08;5.00;5.00;5.00;;
74214;Laerm;62576;55.694;37.494;2024-03-22T11:05:46;5.00;5.00;5.00;;
74214;Laerm;62576;55.694;37.494;2024-03-22T11:08:24;5.00;5.00;5.00;;
74214;Laerm;62576;55.694;37.494;2024-03-22T11:10:56;5.00;5.00;5.00;;
74214;Laerm;62576;55.694;37.494;2024-03-22T11:13:26;5.00;5.00;5.00;;
74214;Laerm;62576;55.694;37.494;2024-03-22T11:15:58;5.00;5.00;5.00;;
74214;Laerm;62576;55.694;37.494;2024-03-22T11:18:29;5.00;5.00;5.00;;
74214;Laerm;62576;55.694;37.494;2024-03-22T11:21:01;5.00;5.00;5.00;;
74214;Laerm;62576;55.694;37.494;2024-03-22T11:23:31;5.00;5.00;5.00;;
74214;Laerm;62576;55.694;37.494;2024-03-22T11:26:02;5.00;5.00;5.00;;
74214;Laerm;62576;55.694;37.494;2024-03-22T11:28:32;5.00;5.00;5.00;;
74214;Laerm;62576;55.694;37.494;2024-03-22T11:31:03;5.00;5.00;5.00;;
74214;Laerm;62576;55.694;37.494;2024-03-22T11:33:32;5.00;5.00;5.00;;
74214;Laerm;62576;55.694;37.494;2024-03-22T11:36:02;5.00;5.00;5.00;;
74214;Laerm;62576;55.694;37.494;2024-03-22T11:38:33;5.00;5.00;5.00;;
74214;Laerm;62576;55.694;37.494;2024-03-22T11:41:04;5.00;5.00;5.00;;
74214;Laerm;62576;55.694;37.494;2024-03-22T11:43:34;5.00;5.00;5.00;;
74214;Laerm;62576;55.694;37.494;2024-03-22T11:46:11;5.00;5.00;5.00;;
74214;Laerm;62576;55.694;37.494;2024-03-22T11:48:42;5.00;5.00;5.00;;
74214;Laerm;62576;55.694;37.494;2024-03-22T11:51:15;5.00;5.00;5.00;;
74214;Laerm;62576;55.694;37.494;2024-03-22T11:54:19;5.00;5.00;5.00;;
74214;Laerm;62576;55.694;37.494;2024-03-22T11:56:51;5.00;5.00;5.00;;
74214;Laerm;62576;55.694;37.494;2024-03-22T11:59:24;5.00;5.00;5.00;;
74214;Laerm;62576;55.694;37.494;2024-03-22T12:01:55;5.00;5.00;5.00;;
74214;Laerm;62576;55.694;37.494;2024-03-22T12:04:24;5.00;5.00;5.00;;
74214;Laerm;62576;55.694;37.494;2024-03-22T12:06:56;5.00;5.00;5.00;;
74214;Laerm;62576;55.694;37.494;2024-03-22T12:09:26;5.00;5.00;5.00;;
74214;Laerm;62576;55.694;37.494;2024-03-22T12:11:57;5.00;5.00;5.00;;
74214;Laerm;62576;55.694;37.494;2024-03-22T12:14:26;5.00;5.00;5.00;;
74214;Laerm;62576;55.694;37.494;2024-03-22T12:16:59;5.00;5.00;5.00;;
74214;Laerm;62576;55.694;37.494;2024-03-22T12:19:29;5.00;5.00;5.00;;
74214;Laerm;62576;55.694;37.494;2024-03-22T12:22:02;5.00;5.00;5.00;;
74214;Laerm;62576;55.694;37.494;2024-03-22T12:24:32;5.00;5.00;5.00;;
74214;Laerm;62576;55.694;37.494;2024-03-22T12:27:02;5.00;5.00;5.00;;
74214;Laerm;62576;55.694;37.494;2024-03-22T12:29:34;5.00;5.00;5.00;;
74214;Laerm;62576;55.694;37.494;2024-03-22T12:32:05;5.00;5.00;5.00;;
74214;Laerm;62576;55.694;37.494;2024-03-22T12:34:35;5.00;5.00;5.00;;
74214;Laerm;62576;55.694;37.494;2024-03-22T12:37:08;5.00;5.00;5.00;;
74214;Laerm;62576;55.694;37.494;2024-03-22T12:39:41;5.00;5.00;5.00;;
74214;Laerm;62576;55.694;37.494;2024-03-22T12:42:24;5.00;5.00;5.00;;
74214;Laerm;62576;55.694;37.494;2024-03-22T12:44:59;5.00;5.00;5.00;;
74214;Laerm;62576;55.694;37.494;2024-03-22T12:47:30;5.00;5.00;5.00;;
74214;Laerm;62576;55.694;37.494;2024-03-22T12:49:59;5.00;5.00;5.00;;
74214;Laerm;62576;55.694;37.494;2024-03-22T12:52:31;5.00;5.00;5.00;;
74214;Laerm;62576;55.694;37.494;2024-03-22T12:55:00;74.69;-36.23;99.12;;
74214;Laerm;62576;55.694;37.494;2024-03-22T12:57:30;82.67;-331.32;99.19;;
74214;Laerm;62576;55.694;37.494;2024-03-22T13:00:00;69.44;-326.54;96.22;;
74214;Laerm;62576;55.694;37.494;2024-03-22T13:02:31;67.62;-59.94;96.22;;
74214;Laerm;62576;55.694;37.494;2024-03-22T13:05:02;63.38;-17.27;96.22;;
74214;Laerm;62576;55.694;37.494;2024-03-22T13:07:35;65.89;-44.51;96.23;;
74214;Laerm;62576;55.694;37.494;2024-03-22T13:10:09;68.84;-328.31;96.26;;
74214;Laerm;62576;55.694;37.494;2024-03-22T13:12:42;69.78;-331.32;96.23;;
74214;Laerm;62576;55.694;37.494;2024-03-22T13:15:11;56.55;-215.07;69.70;;
74214;Laerm;62576;55.694;37.494;2024-03-22T13:17:41;68.00;-43.45;96.23;;
74214;Laerm;62576;55.694;37.494;2024-03-22T13:20:11;66.97;-55.44;96.22;;
74214;Laerm;62576;55.694;37.494;2024-03-22T13:22:45;66.97;-5.65;96.21;;
74214;Laerm;62576;55.694;37.494;2024-03-22T13:25:14;68.62;-5.32;96.22;;
74214;Laerm;62576;55.694;37.494;2024-03-22T13:27:45;67.12;-6.53;96.22;;
74214;Laerm;62576;55.694;37.494;2024-03-22T13:30:16;63.40;-31.48;96.22;;
74214;Laerm;62576;55.694;37.494;2024-03-22T13:32:46;67.66;-73.63;96.23;;
74214;Laerm;62576;55.694;37.494;2024-03-22T13:35:18;48.96;-48.67;60.66;;
74214;Laerm;62576;55.694;37.494;2024-03-22T13:37:50;68.84;-53.92;96.22;;
74214;Laerm;62576;55.694;37.494;2024-03-22T13:40:20;67.75;-35.47;96.31;;
74214;Laerm;62576;55.694;37.494;2024-03-22T13:42:53;68.88;-41.99;96.25;;
74214;Laerm;62576;55.694;37.494;2024-03-22T13:45:22;68.95;-46.16;96.26;;
74214;Laerm;62576;55.694;37.494;2024-03-22T13:47:53;68.93;-65.27;96.23;;
74214;Laerm;62576;55.694;37.494;2024-03-22T13:50:21;62.97;-253.76;96.23;;
74214;Laerm;62576;55.694;37.494;2024-03-22T13:52:54;62.91;-334.33;96.31;;
74214;Laerm;62576;55.694;37.494;2024-03-22T13:55:23;69.91;-334.33;96.23;;
74214;Laerm;62576;55.694;37.494;2024-03-22T13:57:54;65.82;-77.98;96.23;;
74214;Laerm;62576;55.694;37.494;2024-03-22T14:00:23;66.01;-55.77;96.23;;